CSB0501 EPKT-EPGD
Flight info
| Callsign | CSB0501 |
|---|---|
| Flight time | N/A |
| Altitude | 36000 |
| Route | NAVUR N744 OVBOR N133 GRUDA Z95 OSLOG |
| Aircraft | MD11/H-SDE1E2E3FGHIJ2J3J4J5M1RWXY/LB1D1 |
Departure
| Time | N/A |
|---|---|
| Airport | Katowice Wojciech Korfanty International Airport (EPKT) |
Arrival
| Time | 2026-05-06 11:29 |
|---|---|
| Airport | Gdańsk Lech Wałęsa Airport (EPGD) |
| Time | Latitude | Longitude | Altitude | Speed | Heading |
|---|---|---|---|---|---|
| 2026-05-06 11:01 | 52.19755 | 19.46025 | 35767 ft | 474 kts | 341° |
| 2026-05-06 11:02 | 52.22910 | 19.44457 | 35765 ft | 474 kts | 341° |
| 2026-05-06 11:02 | 52.29222 | 19.41315 | 35764 ft | 474 kts | 341° |
| 2026-05-06 11:03 | 52.35466 | 19.38202 | 35488 ft | 456 kts | 341° |
| 2026-05-06 11:03 | 52.38458 | 19.36709 | 35150 ft | 447 kts | 341° |
| 2026-05-06 11:03 | 52.41419 | 19.35227 | 34611 ft | 443 kts | 341° |
| 2026-05-06 11:03 | 52.44358 | 19.33751 | 34074 ft | 441 kts | 341° |
| 2026-05-06 11:04 | 52.47293 | 19.32275 | 33553 ft | 441 kts | 341° |
| 2026-05-06 11:04 | 52.50229 | 19.30793 | 33019 ft | 442 kts | 341° |
| 2026-05-06 11:04 | 52.53181 | 19.29306 | 32502 ft | 443 kts | 341° |
| 2026-05-06 11:04 | 52.56100 | 19.27831 | 31977 ft | 444 kts | 341° |
| 2026-05-06 11:05 | 52.59059 | 19.26328 | 31456 ft | 446 kts | 341° |
| 2026-05-06 11:05 | 52.62034 | 19.24814 | 30909 ft | 447 kts | 341° |
| 2026-05-06 11:05 | 52.65010 | 19.23300 | 30381 ft | 448 kts | 341° |
| 2026-05-06 11:05 | 52.68007 | 19.21776 | 29817 ft | 449 kts | 341° |
| 2026-05-06 11:06 | 52.70998 | 19.20254 | 29279 ft | 450 kts | 341° |
| 2026-05-06 11:06 | 52.74004 | 19.18723 | 28734 ft | 452 kts | 341° |
| 2026-05-06 11:06 | 52.76982 | 19.17205 | 28193 ft | 452 kts | 341° |
| 2026-05-06 11:06 | 52.79992 | 19.15671 | 27643 ft | 453 kts | 341° |
| 2026-05-06 11:07 | 52.83014 | 19.14129 | 27085 ft | 454 kts | 341° |
| 2026-05-06 11:07 | 52.86042 | 19.12579 | 26548 ft | 455 kts | 341° |
| 2026-05-06 11:07 | 52.89070 | 19.11026 | 25986 ft | 456 kts | 341° |
| 2026-05-06 11:07 | 52.92103 | 19.09467 | 25432 ft | 457 kts | 341° |
| 2026-05-06 11:08 | 52.95149 | 19.07900 | 24879 ft | 458 kts | 341° |
| 2026-05-06 11:08 | 52.98202 | 19.06327 | 24319 ft | 459 kts | 341° |
| 2026-05-06 11:08 | 53.01255 | 19.04752 | 23755 ft | 460 kts | 341° |
| 2026-05-06 11:08 | 53.04286 | 19.03186 | 23198 ft | 461 kts | 341° |
| 2026-05-06 11:09 | 53.07362 | 19.01597 | 22627 ft | 462 kts | 341° |
| 2026-05-06 11:09 | 53.10416 | 19.00009 | 22061 ft | 464 kts | 341° |
| 2026-05-06 11:09 | 53.13494 | 18.98403 | 21467 ft | 462 kts | 341° |
| 2026-05-06 11:09 | 53.16556 | 18.96805 | 20889 ft | 458 kts | 341° |
| 2026-05-06 11:10 | 53.19591 | 18.95220 | 20316 ft | 454 kts | 341° |
| 2026-05-06 11:10 | 53.22603 | 18.93644 | 19726 ft | 451 kts | 341° |
| 2026-05-06 11:10 | 53.25582 | 18.92082 | 19156 ft | 447 kts | 341° |
| 2026-05-06 11:10 | 53.28541 | 18.90530 | 18586 ft | 443 kts | 341° |
| 2026-05-06 11:11 | 53.31478 | 18.88987 | 18014 ft | 440 kts | 341° |
| 2026-05-06 11:11 | 53.34354 | 18.87474 | 17465 ft | 437 kts | 341° |
| 2026-05-06 11:11 | 53.37247 | 18.85951 | 16908 ft | 433 kts | 341° |
| 2026-05-06 11:11 | 53.40119 | 18.84439 | 16362 ft | 430 kts | 341° |
| 2026-05-06 11:12 | 53.42958 | 18.82942 | 15805 ft | 427 kts | 341° |
| 2026-05-06 11:12 | 53.45796 | 18.81442 | 15267 ft | 424 kts | 341° |
| 2026-05-06 11:12 | 53.48608 | 18.79955 | 14747 ft | 421 kts | 341° |
| 2026-05-06 11:12 | 53.51406 | 18.78563 | 14228 ft | 419 kts | 346° |
| 2026-05-06 11:13 | 53.54273 | 18.77741 | 13704 ft | 417 kts | 352° |
| 2026-05-06 11:13 | 53.57128 | 18.77307 | 13201 ft | 414 kts | 355° |
| 2026-05-06 11:13 | 53.60003 | 18.77024 | 12708 ft | 411 kts | 356° |
| 2026-05-06 11:13 | 53.62855 | 18.76774 | 12406 ft | 409 kts | 356° |
| 2026-05-06 11:14 | 53.65638 | 18.76516 | 12293 ft | 387 kts | 355° |
| 2026-05-06 11:14 | 53.68227 | 18.76257 | 12185 ft | 359 kts | 355° |
| 2026-05-06 11:14 | 53.69849 | 18.76088 | 12101 ft | 343 kts | 355° |
| 2026-05-06 11:14 | 53.72871 | 18.75762 | 11948 ft | 314 kts | 355° |
| 2026-05-06 11:15 | 53.74336 | 18.75596 | 11880 ft | 314 kts | 355° |
| 2026-05-06 11:15 | 53.77118 | 18.74615 | 11762 ft | 307 kts | 333° |
| 2026-05-06 11:15 | 53.78371 | 18.73460 | 11741 ft | 308 kts | 326° |
| 2026-05-06 11:15 | 53.80148 | 18.71445 | 11675 ft | 306 kts | 322° |
| 2026-05-06 11:16 | 53.81874 | 18.69349 | 11611 ft | 306 kts | 322° |
| 2026-05-06 11:16 | 53.83596 | 18.67229 | 11553 ft | 306 kts | 322° |
| 2026-05-06 11:16 | 53.85325 | 18.65113 | 11500 ft | 306 kts | 322° |
| 2026-05-06 11:16 | 53.87057 | 18.63003 | 11432 ft | 305 kts | 322° |
| 2026-05-06 11:17 | 53.88766 | 18.60927 | 11367 ft | 306 kts | 322° |
| 2026-05-06 11:17 | 53.90497 | 18.58830 | 11305 ft | 306 kts | 323° |
| 2026-05-06 11:17 | 53.92239 | 18.56730 | 11240 ft | 306 kts | 322° |
| 2026-05-06 11:17 | 53.93972 | 18.54635 | 10983 ft | 308 kts | 322° |
| 2026-05-06 11:18 | 53.95776 | 18.52508 | 10920 ft | 329 kts | 327° |
| 2026-05-06 11:18 | 53.97769 | 18.50796 | 10861 ft | 309 kts | 335° |
| 2026-05-06 11:18 | 53.99713 | 18.49402 | 10775 ft | 302 kts | 336° |
| 2026-05-06 11:18 | 54.01651 | 18.48051 | 10660 ft | 300 kts | 336° |
| 2026-05-06 11:19 | 54.03587 | 18.46701 | 10565 ft | 300 kts | 336° |
| 2026-05-06 11:19 | 54.05496 | 18.45366 | 10439 ft | 300 kts | 336° |
| 2026-05-06 11:19 | 54.07432 | 18.44011 | 10138 ft | 300 kts | 336° |
| 2026-05-06 11:19 | 54.09359 | 18.42652 | 9667 ft | 299 kts | 336° |
| 2026-05-06 11:20 | 54.11275 | 18.41292 | 9193 ft | 297 kts | 336° |
| 2026-05-06 11:20 | 54.13171 | 18.39933 | 8734 ft | 294 kts | 336° |
| 2026-05-06 11:20 | 54.15050 | 18.38572 | 8289 ft | 292 kts | 336° |
| 2026-05-06 11:20 | 54.16911 | 18.37216 | 7841 ft | 290 kts | 336° |
| 2026-05-06 11:21 | 54.18761 | 18.35858 | 7442 ft | 287 kts | 336° |
| 2026-05-06 11:21 | 54.20555 | 18.34532 | 7044 ft | 281 kts | 336° |
| 2026-05-06 11:21 | 54.22358 | 18.33194 | 6655 ft | 276 kts | 336° |
| 2026-05-06 11:21 | 54.24084 | 18.31905 | 6281 ft | 271 kts | 336° |
| 2026-05-06 11:22 | 54.25794 | 18.30617 | 5915 ft | 266 kts | 336° |
| 2026-05-06 11:22 | 54.27470 | 18.29344 | 5562 ft | 261 kts | 336° |
| 2026-05-06 11:22 | 54.29118 | 18.28078 | 5218 ft | 256 kts | 337° |
| 2026-05-06 11:22 | 54.30726 | 18.26836 | 4896 ft | 250 kts | 336° |
| 2026-05-06 11:23 | 54.32295 | 18.25609 | 4604 ft | 245 kts | 336° |
| 2026-05-06 11:23 | 54.33815 | 18.24407 | 4341 ft | 232 kts | 337° |
| 2026-05-06 11:23 | 54.35270 | 18.23240 | 4088 ft | 231 kts | 337° |
| 2026-05-06 11:23 | 54.36698 | 18.22074 | 3830 ft | 228 kts | 337° |
| 2026-05-06 11:24 | 54.38131 | 18.20904 | 3639 ft | 227 kts | 336° |
| 2026-05-06 11:24 | 54.39543 | 18.19734 | 3541 ft | 219 kts | 336° |
| 2026-05-06 11:24 | 54.40943 | 18.19058 | 3434 ft | 204 kts | 3° |
| 2026-05-06 11:24 | 54.42275 | 18.19739 | 3145 ft | 198 kts | 38° |
| 2026-05-06 11:25 | 54.43059 | 18.21575 | 2903 ft | 193 kts | 73° |
| 2026-05-06 11:25 | 54.43161 | 18.23840 | 2763 ft | 191 kts | 98° |
| 2026-05-06 11:25 | 54.42867 | 18.26083 | 2701 ft | 193 kts | 105° |
| 2026-05-06 11:25 | 54.42382 | 18.28249 | 2546 ft | 194 kts | 111° |
| 2026-05-06 11:26 | 54.41845 | 18.30375 | 2513 ft | 194 kts | 111° |
| 2026-05-06 11:26 | 54.41331 | 18.32427 | 2451 ft | 173 kts | 110° |
| 2026-05-06 11:26 | 54.40896 | 18.34209 | 1991 ft | 155 kts | 111° |
| 2026-05-06 11:26 | 54.40451 | 18.35833 | 1517 ft | 144 kts | 112° |
| 2026-05-06 11:27 | 54.40008 | 18.37405 | 1355 ft | 146 kts | 111° |
| 2026-05-06 11:27 | 54.39610 | 18.39016 | 1263 ft | 147 kts | 109° |
| 2026-05-06 11:27 | 54.39201 | 18.40713 | 1075 ft | 160 kts | 109° |
| 2026-05-06 11:27 | 54.38793 | 18.42396 | 868 ft | 154 kts | 109° |
| 2026-05-06 11:28 | 54.38392 | 18.44006 | 653 ft | 139 kts | 109° |
| 2026-05-06 11:28 | 54.37998 | 18.45655 | 486 ft | 152 kts | 110° |
| 2026-05-06 11:28 | 54.37643 | 18.47091 | 466 ft | 102 kts | 114° |
| 2026-05-06 11:28 | 54.37433 | 18.47954 | 477 ft | 58 kts | 112° |
| 2026-05-06 11:29 | 54.37299 | 18.48500 | 499 ft | 43 kts | 114° |
| 2026-05-06 11:29 | 54.37203 | 18.48881 | 502 ft | 23 kts | 112° |
| 2026-05-06 11:29 | 54.37159 | 18.49113 | 503 ft | 15 kts | 93° |
| 2026-05-06 11:29 | 54.37177 | 18.49203 | 503 ft | 7 kts | 52° |
| 2026-05-06 11:30 | 54.37245 | 18.49262 | 504 ft | 12 kts | 359° |
| 2026-05-06 11:30 | 54.37293 | 18.49213 | 503 ft | 5 kts | 304° |
| 2026-05-06 11:30 | 54.37319 | 18.49110 | 502 ft | 16 kts | 294° |
| 2026-05-06 11:30 | 54.37377 | 18.48878 | 501 ft | 24 kts | 292° |
| 2026-05-06 11:31 | 54.37452 | 18.48570 | 488 ft | 31 kts | 292° |
| 2026-05-06 11:31 | 54.37539 | 18.48219 | 478 ft | 32 kts | 293° |
| 2026-05-06 11:31 | 54.37625 | 18.47875 | 473 ft | 31 kts | 293° |
| 2026-05-06 11:31 | 54.37705 | 18.47552 | 471 ft | 29 kts | 293° |
| 2026-05-06 11:32 | 54.37779 | 18.47254 | 467 ft | 25 kts | 293° |
| 2026-05-06 11:32 | 54.37842 | 18.47002 | 466 ft | 20 kts | 293° |
| 2026-05-06 11:32 | 54.37892 | 18.46800 | 467 ft | 16 kts | 292° |
| 2026-05-06 11:32 | 54.37920 | 18.46711 | 467 ft | 2 kts | 316° |
| 2026-05-06 11:33 | 54.37942 | 18.46699 | 467 ft | 5 kts | 353° |
| 2026-05-06 11:33 | 54.37961 | 18.46708 | 467 ft | 1 kts | 23° |
| 2026-05-06 11:33 | 54.37986 | 18.46729 | 467 ft | 8 kts | 24° |
| 2026-05-06 11:33 | 54.38021 | 18.46754 | 467 ft | 3 kts | 23° |
| 2026-05-06 11:34 | 54.38030 | 18.46760 | 467 ft | 0 kts | 23° |